Time;durP1;ratioP1;P1;durP2;ratioP2;P2;SDS_P1;SDS_P2;PMS_P1;PMS_P2;Temp;Humidity;BMP_temperature;BMP_pressure;BME280_temperature;BME280_humidity;BME280_pressure;Samples;Min_cycle;Max_cycle;Signal;HPM_P1;HPM_P2
2023/02/09 00:01:14;;;;;;;22.70;13.00;;;5.80;99.90;;;;;;5113959;28;20022;-43
2023/02/09 00:03:41;;;;;;;21.42;11.68;;;5.80;99.90;;;;;;5113931;27;20032;-42
2023/02/09 00:06:07;;;;;;;19.90;11.35;;;5.90;99.90;;;;;;5113334;28;20043;-43
2023/02/09 00:08:35;;;;;;;18.10;10.65;;;6.10;99.90;;;;;;5113585;28;20024;-42
2023/02/09 00:11:06;;;;;;;18.48;11.80;;;6.40;99.90;;;;;;5113672;28;20102;-40
2023/02/09 00:13:32;;;;;;;19.13;12.52;;;6.50;99.90;;;;;;5113639;28;20083;-43
2023/02/09 00:16:00;;;;;;;19.63;12.25;;;6.50;99.90;;;;;;5113779;28;20074;-41
2023/02/09 00:18:27;;;;;;;21.20;11.50;;;6.50;99.90;;;;;;5113405;28;20055;-42
2023/02/09 00:21:08;;;;;;;17.98;11.88;;;6.40;99.90;;;;;;5113391;28;20020;-43
2023/02/09 00:23:37;;;;;;;21.48;11.70;;;6.30;99.90;;;;;;5113179;28;20016;-42
2023/02/09 00:26:09;;;;;;;18.75;11.82;;;6.20;99.90;;;;;;5112971;28;20110;-42
2023/02/09 00:28:36;;;;;;;18.50;11.70;;;6.20;99.90;;;;;;5113272;28;20031;-42
2023/02/09 00:31:10;;;;;;;20.08;10.88;;;6.10;99.90;;;;;;5111453;28;20027;-39
2023/02/09 00:33:36;;;;;;;19.75;11.45;;;6.00;99.90;;;;;;5113254;28;20089;-40
2023/02/09 00:36:05;;;;;;;21.20;11.45;;;5.90;99.90;;;;;;5111633;28;20109;-42
2023/02/09 00:38:31;;;;;;;20.88;11.90;;;5.90;99.90;;;;;;5113185;28;20044;-41
2023/02/09 00:40:57;;;;;;;18.13;11.23;;;5.90;99.90;;;;;;5112772;28;20374;-42
2023/02/09 00:43:22;;;;;;;22.20;12.73;;;5.80;99.90;;;;;;5110736;28;20023;-42
2023/02/09 00:45:48;;;;;;;26.17;12.82;;;5.80;99.90;;;;;;5112947;28;20027;-39
2023/02/09 00:48:13;;;;;;;22.17;12.55;;;5.80;99.90;;;;;;5113002;28;20059;-42
2023/02/09 00:50:39;;;;;;;18.33;11.68;;;5.80;99.90;;;;;;5112952;28;20019;-42
2023/02/09 00:53:05;;;;;;;19.10;12.18;;;;;;;;;;5112786;28;20432;-42
2023/02/09 00:55:31;;;;;;;20.15;11.65;;;;;;;;;;5112674;28;20032;-42
2023/02/09 00:57:57;;;;;;;21.23;11.40;;;;;;;;;;5112372;28;20495;-39
2023/02/09 01:00:23;;;;;;;18.50;11.68;;;;;;;;;;5112473;28;20032;-39
2023/02/09 01:02:49;;;;;;;18.85;11.80;;;;;;;;;;5112590;28;20513;-42
2023/02/09 01:05:15;;;;;;;20.00;11.57;;;;;;;;;;5112583;28;20035;-41
2023/02/09 01:07:41;;;;;;;18.20;11.15;;;6.00;99.90;;;;;;5112291;28;20019;-41
2023/02/09 01:10:07;;;;;;;16.35;10.98;;;6.10;99.90;;;;;;5112418;28;20054;-43
2023/02/09 01:12:33;;;;;;;16.58;11.02;;;6.40;99.90;;;;;;5111001;28;20077;-40
2023/02/09 01:15:00;;;;;;;16.70;10.13;;;6.40;99.90;;;;;;5112425;28;20023;-43
2023/02/09 01:17:27;;;;;;;19.15;11.48;;;6.40;99.90;;;;;;5112276;28;20381;-43
2023/02/09 01:19:54;;;;;;;18.58;11.20;;;6.30;99.90;;;;;;5112361;28;20093;-41
2023/02/09 01:22:20;;;;;;;17.73;11.23;;;6.30;99.90;;;;;;5112101;28;20027;-41
2023/02/09 01:24:46;;;;;;;18.10;11.15;;;6.10;99.90;;;;;;5112251;28;20023;-41
2023/02/09 01:27:12;;;;;;;19.55;11.40;;;6.10;99.90;;;;;;5111886;28;20023;-40
2023/02/09 01:29:38;;;;;;;19.55;11.15;;;6.00;99.90;;;;;;5111932;28;20043;-43
2023/02/09 01:32:04;;;;;;;17.83;10.80;;;5.90;99.90;;;;;;5112074;28;20023;-41
2023/02/09 01:34:29;;;;;;;20.35;11.50;;;5.90;99.90;;;;;;5112141;28;20118;-42
2023/02/09 01:36:55;;;;;;;18.98;11.45;;;5.80;99.90;;;;;;5112247;28;20070;-42
2023/02/09 01:39:21;;;;;;;19.30;11.27;;;5.80;99.90;;;;;;5093621;28;20023;-42
2023/02/09 01:41:47;;;;;;;19.80;11.82;;;5.80;99.90;;;;;;5112177;28;20031;-42
2023/02/09 01:44:15;;;;;;;20.05;11.68;;;5.70;99.90;;;;;;5110654;28;20022;-43
2023/02/09 01:46:43;;;;;;;18.27;11.00;;;5.70;99.90;;;;;;5111760;28;20098;-43
2023/02/09 01:49:12;;;;;;;21.65;12.15;;;5.70;99.90;;;;;;5111985;28;20500;-43
2023/02/09 01:52:03;;;;;;;20.08;11.73;;;5.70;99.90;;;;;;5111749;28;20027;-43
2023/02/09 01:54:41;;;;;;;19.65;12.00;;;5.60;99.90;;;;;;5111681;28;20023;-43
2023/02/09 01:57:11;;;;;;;20.48;11.65;;;5.60;99.90;;;;;;5111917;28;20401;-40
2023/02/09 01:59:40;;;;;;;18.65;11.10;;;5.60;99.90;;;;;;5111908;28;20111;-43
2023/02/09 02:02:07;;;;;;;19.70;11.30;;;5.60;99.90;;;;;;5111811;28;20023;-42
2023/02/09 02:04:34;;;;;;;23.05;12.00;;;5.60;99.90;;;;;;5111594;28;20501;-35
2023/02/09 02:07:10;;;;;;;20.05;12.43;;;5.70;99.90;;;;;;5111560;28;20024;-36
2023/02/09 02:09:36;;;;;;;17.27;10.50;;;6.00;99.90;;;;;;5111894;28;20038;-39
2023/02/09 02:12:04;;;;;;;18.67;11.80;;;6.20;99.90;;;;;;5111546;28;20028;-34
2023/02/09 02:14:32;;;;;;;18.77;11.60;;;6.30;99.90;;;;;;5111915;28;20028;-36
2023/02/09 02:17:18;;;;;;;17.33;11.70;;;6.30;99.90;;;;;;5111310;28;20464;-39
2023/02/09 02:20:21;;;;;;;17.08;10.82;;;6.20;99.90;;;;;;5110031;28;20503;-39
2023/02/09 02:23:14;;;;;;;19.40;11.02;;;6.10;99.90;;;;;;5111745;28;20058;-37
2023/02/09 02:25:52;;;;;;;17.90;10.90;;;6.00;99.90;;;;;;5111599;28;20036;-39
2023/02/09 02:28:29;;;;;;;16.75;10.90;;;5.90;99.90;;;;;;5111667;28;20048;-36
2023/02/09 02:31:13;;;;;;;18.52;11.40;;;5.80;99.90;;;;;;5111481;28;20028;-39
2023/02/09 02:34:02;;;;;;;19.98;11.25;;;5.80;99.90;;;;;;5111902;28;20035;-37
2023/02/09 02:37:06;;;;;;;19.08;11.50;;;5.70;99.90;;;;;;5111340;28;20384;-38
2023/02/09 02:39:51;;;;;;;17.45;11.13;;;5.60;99.90;;;;;;5111259;28;20035;-33
2023/02/09 02:45:26;;;;;;;15.98;10.48;;;5.60;99.90;;;;;;5111513;28;20039;-34
2023/02/09 02:48:09;;;;;;;18.65;11.38;;;5.50;99.90;;;;;;5111135;28;20024;-36
2023/02/09 02:50:40;;;;;;;18.85;11.15;;;5.50;99.90;;;;;;5110982;28;20100;-42
2023/02/09 02:53:13;;;;;;;20.90;11.60;;;5.50;99.90;;;;;;5111225;28;20020;-43
2023/02/09 02:55:41;;;;;;;19.77;11.35;;;5.50;99.90;;;;;;5111166;28;20026;-39
2023/02/09 02:58:10;;;;;;;17.75;11.20;;;5.40;99.90;;;;;;5111050;28;20035;-34
2023/02/09 03:00:45;;;;;;;18.25;11.20;;;5.40;99.90;;;;;;5110907;28;20028;-35
2023/02/09 03:03:20;;;;;;;18.73;11.18;;;5.40;99.90;;;;;;5109890;28;20030;-36
2023/02/09 03:05:47;;;;;;;17.92;10.77;;;5.50;99.90;;;;;;5111200;28;20019;-35
2023/02/09 03:08:12;;;;;;;17.42;12.10;;;5.70;99.90;;;;;;5114102;28;20466;-37
2023/02/09 03:10:40;;;;;;;19.27;10.90;;;5.90;99.90;;;;;;5114875;28;20028;-41
2023/02/09 03:13:34;;;;;;;18.20;11.40;;;6.10;99.90;;;;;;5114617;28;20049;-33
2023/02/09 03:16:11;;;;;;;18.42;11.38;;;6.30;99.90;;;;;;5114412;28;20500;-38
2023/02/09 03:19:05;;;;;;;19.42;12.07;;;6.20;99.90;;;;;;5114692;28;20458;-33
2023/02/09 03:21:48;;;;;;;20.63;11.18;;;6.10;99.90;;;;;;5114454;28;20114;-35
2023/02/09 03:24:36;;;;;;;17.35;11.02;;;6.00;99.90;;;;;;5114585;27;20027;-35
2023/02/09 03:27:21;;;;;;;19.55;11.10;;;5.90;99.90;;;;;;5107561;28;20081;-34
2023/02/09 03:29:50;;;;;;;19.98;12.23;;;5.80;99.90;;;;;;5114262;28;20363;-34
2023/02/09 03:32:17;;;;;;;17.30;11.27;;;5.80;99.90;;;;;;5113223;28;20110;-35
2023/02/09 03:34:43;;;;;;;20.00;11.23;;;5.70;99.90;;;;;;5114532;28;20023;-38
2023/02/09 03:37:09;;;;;;;18.58;11.27;;;5.70;99.90;;;;;;5113992;28;20020;-34
2023/02/09 03:39:35;;;;;;;19.23;11.35;;;5.60;99.90;;;;;;5113891;28;20461;-38
2023/02/09 03:42:00;;;;;;;20.48;12.13;;;5.60;99.90;;;;;;5114221;28;20107;-40
2023/02/09 03:44:26;;;;;;;19.08;12.20;;;5.50;99.90;;;;;;5114099;28;20362;-36
2023/02/09 03:46:58;;;;;;;20.65;12.15;;;5.50;99.90;;;;;;5113977;27;20019;-35
2023/02/09 03:49:25;;;;;;;21.00;11.95;;;5.50;99.90;;;;;;5113919;28;20020;-36
2023/02/09 03:51:51;;;;;;;18.40;12.15;;;5.40;99.90;;;;;;5114134;28;20070;-41
2023/02/09 03:54:16;;;;;;;19.27;12.45;;;5.40;99.90;;;;;;5114258;28;20055;-40
2023/02/09 03:56:42;;;;;;;20.05;12.13;;;5.40;99.90;;;;;;5113619;28;20416;-33
2023/02/09 03:59:08;;;;;;;20.17;11.63;;;5.40;99.90;;;;;;5113477;28;20114;-36
2023/02/09 04:01:33;;;;;;;19.02;11.85;;;5.30;99.90;;;;;;5112498;28;20389;-37
2023/02/09 04:04:00;;;;;;;18.95;11.57;;;5.40;99.90;;;;;;5113852;28;20076;-38
2023/02/09 04:06:30;;;;;;;20.05;11.90;;;5.50;99.90;;;;;;5113511;28;20174;-33
2023/02/09 04:08:57;;;;;;;19.38;11.65;;;5.70;99.90;;;;;;5113997;28;20016;-38
2023/02/09 04:11:23;;;;;;;21.10;12.02;;;5.90;99.90;;;;;;5113605;28;20015;-34
2023/02/09 04:13:49;;;;;;;21.88;12.23;;;6.10;99.90;;;;;;5113390;28;20491;-36
2023/02/09 04:16:16;;;;;;;20.45;12.43;;;6.20;99.90;;;;;;5113155;28;20019;-36
2023/02/09 04:18:43;;;;;;;20.02;11.63;;;6.10;99.90;;;;;;5113663;28;20043;-35
2023/02/09 04:21:08;;;;;;;19.13;12.00;;;6.00;99.90;;;;;;5113270;28;20032;-35
2023/02/09 04:23:34;;;;;;;20.85;12.65;;;5.90;99.90;;;;;;5113500;28;20050;-34
2023/02/09 04:25:59;;;;;;;20.02;11.63;;;5.90;99.90;;;;;;5112971;28;20023;-38
2023/02/09 04:28:25;;;;;;;21.33;12.15;;;5.80;99.90;;;;;;5113111;28;20024;-38
2023/02/09 04:30:54;;;;;;;18.52;12.30;;;5.70;99.90;;;;;;5113112;28;20032;-40
2023/02/09 04:33:21;;;;;;;20.77;11.90;;;5.60;99.90;;;;;;5113252;27;20550;-42
2023/02/09 04:35:47;;;;;;;19.88;12.00;;;5.60;99.90;;;;;;5113026;28;20024;-42
2023/02/09 04:38:15;;;;;;;20.20;11.52;;;5.50;99.90;;;;;;5113140;28;20020;-34
2023/02/09 04:40:41;;;;;;;22.42;11.88;;;5.50;99.90;;;;;;5112981;28;20034;-35
2023/02/09 04:43:07;;;;;;;19.08;11.65;;;5.40;99.90;;;;;;5112791;28;20107;-37
2023/02/09 04:45:32;;;;;;;21.27;12.02;;;5.40;99.90;;;;;;5112947;28;20062;-34
2023/02/09 04:47:58;;;;;;;22.80;12.13;;;5.30;99.90;;;;;;5112883;28;20023;-33
2023/02/09 04:50:23;;;;;;;22.10;12.45;;;5.30;99.90;;;;;;5112687;28;20067;-38
2023/02/09 04:52:50;;;;;;;18.42;11.35;;;5.30;99.90;;;;;;5112730;28;20093;-35
2023/02/09 04:55:16;;;;;;;23.00;12.48;;;5.30;99.90;;;;;;5112792;28;20058;-42
2023/02/09 05:00:26;;;;;;;19.70;12.30;;;5.30;99.90;;;;;;5112377;28;20042;-38
2023/02/09 05:02:53;;;;;;;21.27;12.30;;;5.30;99.90;;;;;;5112613;28;20020;-41
2023/02/09 05:05:19;;;;;;;20.77;12.02;;;5.30;99.90;;;;;;5112947;28;20481;-42
2023/02/09 05:07:45;;;;;;;20.13;12.07;;;5.50;99.90;;;;;;5112352;28;20035;-40
2023/02/09 05:10:11;;;;;;;19.90;12.35;;;5.70;99.90;;;;;;5112509;28;20036;-42
2023/02/09 05:12:36;;;;;;;20.15;11.93;;;5.90;99.90;;;;;;5112439;28;20401;-42
2023/02/09 05:15:02;;;;;;;19.73;12.40;;;6.00;99.90;;;;;;5112290;28;20015;-38
2023/02/09 05:17:31;;;;;;;20.15;12.63;;;6.10;99.90;;;;;;5112235;28;20033;-34
2023/02/09 05:19:56;;;;;;;21.80;11.90;;;6.00;99.90;;;;;;5112029;28;20027;-38
2023/02/09 05:22:22;;;;;;;23.70;12.50;;;5.90;99.90;;;;;;5112202;28;20492;-37
2023/02/09 05:24:48;;;;;;;20.90;12.85;;;5.80;99.90;;;;;;5112031;28;20035;-36
2023/02/09 05:27:13;;;;;;;19.38;12.00;;;5.70;99.90;;;;;;5112106;28;20016;-34
2023/02/09 05:29:39;;;;;;;18.52;12.07;;;5.60;99.90;;;;;;5111661;28;20455;-35
2023/02/09 05:32:05;;;;;;;25.73;13.95;;;5.50;99.90;;;;;;5112085;28;20028;-38
2023/02/09 05:34:30;;;;;;;26.17;14.95;;;5.50;99.90;;;;;;5112044;28;20106;-38
2023/02/09 05:36:56;;;;;;;23.58;13.15;;;5.40;99.90;;;;;;5111901;28;20061;-42
2023/02/09 05:39:22;;;;;;;19.80;12.40;;;5.40;99.90;;;;;;5111619;28;20024;-41
2023/02/09 05:44:31;;;;;;;22.88;13.23;;;5.30;99.90;;;;;;5112259;28;20031;-41
2023/02/09 05:46:57;;;;;;;22.70;12.85;;;5.30;99.90;;;;;;5111710;28;20435;-41
2023/02/09 05:49:23;;;;;;;20.48;12.52;;;5.20;99.90;;;;;;5110498;28;20308;-42
2023/02/09 05:51:49;;;;;;;21.83;12.80;;;5.20;99.90;;;;;;5111579;28;20452;-42
2023/02/09 05:54:14;;;;;;;21.63;12.75;;;5.20;99.90;;;;;;5111837;28;20036;-42
2023/02/09 05:56:40;;;;;;;23.20;13.48;;;5.20;99.90;;;;;;5111520;28;20099;-41
2023/02/09 05:59:06;;;;;;;21.77;13.55;;;5.10;99.90;;;;;;5111472;28;20489;-39
2023/02/09 06:01:32;;;;;;;26.05;15.30;;;5.10;99.90;;;;;;5111587;28;20016;-42
2023/02/09 06:03:57;;;;;;;24.33;14.07;;;5.10;99.90;;;;;;5112247;28;20047;-43
2023/02/09 06:06:23;;;;;;;22.75;14.05;;;5.30;99.90;;;;;;5111366;28;20046;-43
2023/02/09 06:08:48;;;;;;;22.63;13.73;;;5.40;99.90;;;;;;5111600;28;20080;-39
2023/02/09 06:11:14;;;;;;;23.80;14.30;;;5.60;99.90;;;;;;5111932;28;20409;-42
2023/02/09 06:13:39;;;;;;;26.05;15.07;;;5.80;99.90;;;;;;5111557;28;20077;-42
2023/02/09 06:16:05;;;;;;;27.00;15.27;;;5.90;99.90;;;;;;5111410;28;20101;-42
2023/02/09 06:18:31;;;;;;;22.83;14.07;;;5.90;99.90;;;;;;5111665;28;20497;-42
2023/02/09 06:20:56;;;;;;;25.48;15.07;;;5.80;99.90;;;;;;5111652;28;20521;-39
2023/02/09 06:23:22;;;;;;;21.83;14.85;;;5.80;99.90;;;;;;5111476;28;20029;-42
2023/02/09 06:25:51;;;;;;;26.13;15.18;;;5.70;99.90;;;;;;5110888;28;20436;-41
2023/02/09 06:28:18;;;;;;;23.40;14.13;;;5.60;99.90;;;;;;5111644;28;20423;-41
2023/02/09 06:30:45;;;;;;;25.08;13.93;;;5.50;99.90;;;;;;5111506;28;20106;-42
2023/02/09 06:33:11;;;;;;;22.90;14.65;;;5.40;99.90;;;;;;5111561;28;20112;-40
2023/02/09 06:35:36;;;;;;;22.48;14.15;;;5.40;99.90;;;;;;5111625;28;20062;-42
2023/02/09 06:38:02;;;;;;;25.05;14.43;;;5.30;99.90;;;;;;5111804;28;20431;-42
2023/02/09 06:40:28;;;;;;;21.30;13.90;;;5.30;99.90;;;;;;5111706;28;20030;-41
2023/02/09 06:42:53;;;;;;;21.88;12.85;;;5.20;99.90;;;;;;5114277;28;20432;-41
2023/02/09 06:45:19;;;;;;;19.88;13.27;;;5.20;99.90;;;;;;5115493;28;20028;-42
2023/02/09 06:47:45;;;;;;;23.13;14.60;;;5.20;99.90;;;;;;5115365;28;20445;-42
2023/02/09 06:50:13;;;;;;;23.30;14.73;;;5.10;99.90;;;;;;5115162;28;20485;-42
2023/02/09 06:52:39;;;;;;;21.27;13.95;;;5.10;99.90;;;;;;5115095;28;20024;-42
2023/02/09 06:55:06;;;;;;;24.25;14.55;;;5.10;99.90;;;;;;5115388;28;20052;-42
2023/02/09 06:57:31;;;;;;;23.48;14.52;;;5.10;99.90;;;;;;5115080;28;20438;-41
2023/02/09 06:59:57;;;;;;;25.42;14.88;;;5.00;99.90;;;;;;5115026;28;20153;-42
2023/02/09 07:02:23;;;;;;;22.40;14.25;;;5.00;99.90;;;;;;5114942;28;20026;-42
2023/02/09 07:04:48;;;;;;;24.85;14.15;;;5.10;99.90;;;;;;5114916;28;20015;-42
2023/02/09 07:07:14;;;;;;;24.88;14.95;;;5.30;99.90;;;;;;5114595;28;20020;-32
2023/02/09 07:09:40;;;;;;;23.85;14.18;;;5.50;99.90;;;;;;5114829;28;20323;-34
2023/02/09 07:12:06;;;;;;;24.73;14.38;;;5.70;99.90;;;;;;5114779;28;20450;-36
2023/02/09 07:14:32;;;;;;;22.58;13.52;;;5.90;99.90;;;;;;5114879;28;20038;-39
2023/02/09 07:16:57;;;;;;;24.63;15.25;;;5.90;99.90;;;;;;5114465;28;20439;-35
2023/02/09 07:19:23;;;;;;;24.02;14.85;;;5.80;99.90;;;;;;5114505;28;20027;-36
2023/02/09 07:21:49;;;;;;;23.65;14.35;;;5.70;99.90;;;;;;5115003;28;20012;-35
2023/02/09 07:24:14;;;;;;;22.90;14.48;;;5.60;99.90;;;;;;5114700;28;20028;-32
2023/02/09 07:26:40;;;;;;;22.25;14.05;;;5.60;99.90;;;;;;5114323;28;20081;-33
2023/02/09 07:29:05;;;;;;;22.65;14.07;;;5.50;99.90;;;;;;5114663;28;20416;-36
2023/02/09 07:31:31;;;;;;;23.33;14.50;;;5.40;99.90;;;;;;5114664;28;20047;-38
2023/02/09 07:33:57;;;;;;;27.00;14.13;;;5.40;99.90;;;;;;5114385;28;20027;-33
2023/02/09 07:36:23;;;;;;;24.95;14.18;;;5.30;99.90;;;;;;5114181;28;20019;-36
2023/02/09 07:38:49;;;;;;;23.15;14.27;;;5.30;99.90;;;;;;5114227;28;20023;-34
2023/02/09 07:41:20;;;;;;;23.85;14.32;;;5.20;99.90;;;;;;5114341;27;20024;-38
2023/02/09 07:43:46;;;;;;;23.20;13.70;;;5.20;99.90;;;;;;5114479;28;20020;-34
2023/02/09 07:46:16;;;;;;;24.35;14.10;;;5.20;99.90;;;;;;5113967;27;20385;-36
2023/02/09 07:48:42;;;;;;;22.65;14.07;;;5.30;99.90;;;;;;5114004;28;20538;-36
2023/02/09 07:51:16;;;;;;;22.67;13.80;;;5.20;99.90;;;;;;5113938;28;20043;-33
2023/02/09 07:53:42;;;;;;;;;;;5.30;99.90;;;;;;5114120;28;20015;-33
2023/02/09 07:56:07;;;;;;;21.80;13.40;;;5.30;99.90;;;;;;5114030;28;19949;-33
2023/02/09 07:58:33;;;;;;;22.20;13.55;;;5.30;99.90;;;;;;5113994;28;20101;-33
2023/02/09 08:01:07;;;;;;;22.73;13.90;;;5.30;99.90;;;;;;5113838;28;20330;-34
2023/02/09 08:03:36;;;;;;;22.10;13.30;;;5.50;99.90;;;;;;5112457;28;20485;-37
2023/02/09 08:06:04;;;;;;;21.70;13.30;;;5.70;99.90;;;;;;5113715;28;20016;-35
2023/02/09 08:08:30;;;;;;;24.10;13.15;;;5.90;99.90;;;;;;5112631;28;20485;-34
2023/02/09 08:10:59;;;;;;;24.00;14.07;;;6.20;99.90;;;;;;5113756;28;20119;-36
2023/02/09 08:13:30;;;;;;;21.98;12.95;;;6.20;99.90;;;;;;5112547;28;20069;-35
2023/02/09 08:16:02;;;;;;;22.55;13.63;;;6.20;99.90;;;;;;5113789;28;20031;-37
2023/02/09 08:18:33;;;;;;;22.83;13.30;;;6.20;99.90;;;;;;5113740;28;20097;-38
2023/02/09 08:20:59;;;;;;;21.30;12.90;;;6.10;99.90;;;;;;5113405;28;20034;-33
2023/02/09 08:23:28;;;;;;;20.42;12.35;;;6.00;99.90;;;;;;5113359;28;20015;-36
2023/02/09 08:25:56;;;;;;;20.33;12.18;;;6.00;99.90;;;;;;5113247;28;20107;-35
2023/02/09 08:28:22;;;;;;;20.50;12.75;;;5.90;99.90;;;;;;5113391;28;20020;-39
2023/02/09 08:30:49;;;;;;;19.90;12.65;;;5.90;99.90;;;;;;5113499;28;20024;-34
2023/02/09 08:33:15;;;;;;;18.48;11.73;;;6.00;99.90;;;;;;5113242;28;20465;-32
2023/02/09 08:35:41;;;;;;;22.33;13.23;;;6.20;99.90;;;;;;5113328;28;20042;-33
2023/02/09 08:38:07;;;;;;;19.67;11.93;;;6.30;99.90;;;;;;5113304;28;20036;-36
2023/02/09 08:40:36;;;;;;;20.73;12.45;;;6.30;99.90;;;;;;5113301;28;20031;-33
2023/02/09 08:43:02;;;;;;;21.77;11.68;;;6.30;99.90;;;;;;5113251;28;20019;-35
2023/02/09 08:45:27;;;;;;;19.42;12.20;;;6.30;99.90;;;;;;5111759;28;20068;-33
2023/02/09 08:47:53;;;;;;;24.23;13.80;;;6.20;99.90;;;;;;5112797;28;20129;-34
2023/02/09 08:50:19;;;;;;;19.08;12.23;;;6.20;99.90;;;;;;5113018;28;20028;-35
2023/02/09 08:52:45;;;;;;;19.83;12.43;;;6.10;99.90;;;;;;5112871;28;20031;-36
2023/02/09 08:55:10;;;;;;;17.70;11.40;;;6.10;99.90;;;;;;5113029;28;20039;-33
2023/02/09 08:57:36;;;;;;;16.00;11.00;;;6.20;99.90;;;;;;5112459;28;20293;-33
2023/02/09 09:00:03;;;;;;;18.48;10.98;;;6.40;99.90;;;;;;5111408;28;20035;-36
2023/02/09 09:02:29;;;;;;;17.73;11.35;;;6.50;99.90;;;;;;5112839;28;20389;-38
2023/02/09 09:04:55;;;;;;;15.77;11.07;;;6.50;99.90;;;;;;5111984;28;20015;-37
2023/02/09 09:07:20;;;;;;;16.42;11.38;;;6.50;99.90;;;;;;5112586;28;20389;-34
2023/02/09 09:09:46;;;;;;;19.70;12.25;;;6.50;99.90;;;;;;5112739;28;20020;-36
2023/02/09 09:12:12;;;;;;;16.80;11.00;;;6.40;99.90;;;;;;5112323;28;20031;-36
2023/02/09 09:14:39;;;;;;;17.98;11.70;;;6.40;99.90;;;;;;5112459;28;20028;-34
2023/02/09 09:17:04;;;;;;;18.58;12.15;;;6.30;99.90;;;;;;5112263;28;20103;-34
2023/02/09 09:19:30;;;;;;;20.98;12.20;;;6.30;99.90;;;;;;5112647;28;20653;-32
2023/02/09 09:21:57;;;;;;;18.52;11.00;;;6.40;99.90;;;;;;5113350;28;20023;-36
2023/02/09 09:24:26;;;;;;;19.45;12.23;;;6.60;99.90;;;;;;5112509;28;20030;-34
2023/02/09 09:26:53;;;;;;;18.58;11.60;;;6.70;99.90;;;;;;5112393;28;20018;-39
2023/02/09 09:29:18;;;;;;;17.73;11.23;;;6.70;99.90;;;;;;5112319;28;20492;-36
2023/02/09 09:31:44;;;;;;;17.67;11.13;;;6.70;99.90;;;;;;5112232;28;20028;-36
2023/02/09 09:34:09;;;;;;;16.00;11.20;;;6.70;99.90;;;;;;5112363;28;20034;-37
2023/02/09 09:36:35;;;;;;;18.67;12.02;;;6.70;99.90;;;;;;5112093;28;20023;-35
2023/02/09 09:39:01;;;;;;;16.35;11.13;;;6.60;99.90;;;;;;5112472;28;20015;-37
2023/02/09 09:41:34;;;;;;;41.95;22.98;;;6.60;99.90;;;;;;5111958;28;20114;-35
2023/02/09 09:44:01;;;;;;;36.33;21.05;;;6.50;99.90;;;;;;5112269;28;20041;-37
2023/02/09 09:46:35;;;;;;;32.50;20.45;;;6.40;99.90;;;;;;5111961;28;20024;-35
2023/02/09 09:49:00;;;;;;;33.70;20.52;;;6.50;99.90;;;;;;5112440;28;20030;-36
2023/02/09 09:51:40;;;;;;;31.10;19.42;;;6.60;99.90;;;;;;5111943;28;20190;-33
2023/02/09 09:54:16;;;;;;;31.20;19.15;;;6.70;99.90;;;;;;5112178;28;20039;-37
2023/02/09 09:56:42;;;;;;;30.27;18.73;;;6.70;99.90;;;;;;5111797;28;20048;-39
2023/02/09 09:59:16;;;;;;;30.23;17.95;;;6.60;99.90;;;;;;5111860;28;20035;-36
2023/02/09 10:01:42;;;;;;;28.08;18.13;;;6.60;99.90;;;;;;5112065;28;20028;-36
2023/02/09 10:04:14;;;;;;;29.38;17.83;;;6.60;99.90;;;;;;5111764;28;20098;-36
2023/02/09 10:06:45;;;;;;;30.77;17.63;;;6.60;99.90;;;;;;5111643;28;20023;-38
2023/02/09 10:09:22;;;;;;;26.05;16.92;;;6.60;99.90;;;;;;5111633;28;20059;-40
2023/02/09 10:11:53;;;;;;;27.45;16.95;;;6.60;99.90;;;;;;5111705;28;20023;-40
2023/02/09 10:14:19;;;;;;;29.02;17.08;;;6.80;99.90;;;;;;5111710;28;20470;-43
2023/02/09 10:16:45;;;;;;;24.90;15.75;;;7.00;99.90;;;;;;5113906;28;20073;-40
2023/02/09 10:19:24;;;;;;;25.25;16.05;;;7.10;99.90;;;;;;5116140;28;20041;-34
2023/02/09 10:21:51;;;;;;;26.15;16.33;;;7.10;99.90;;;;;;5116135;28;20028;-40
2023/02/09 10:24:22;;;;;;;23.65;15.68;;;7.10;99.90;;;;;;5116108;28;20020;-39
2023/02/09 10:27:10;;;;;;;25.27;16.08;;;7.10;99.90;;;;;;5115732;28;20493;-39
2023/02/09 10:29:36;;;;;;;27.08;15.02;;;7.10;99.90;;;;;;5115762;28;20023;-35
2023/02/09 10:32:09;;;;;;;20.67;13.82;;;7.00;99.90;;;;;;5115641;28;20032;-43
2023/02/09 10:34:39;;;;;;;25.52;15.30;;;7.00;99.90;;;;;;5115602;28;20088;-42
2023/02/09 10:37:33;;;;;;;21.75;14.25;;;6.90;99.90;;;;;;5115181;28;20431;-33
2023/02/09 10:40:15;;;;;;;27.27;15.50;;;7.10;99.90;;;;;;5114912;28;20035;-39
2023/02/09 10:43:32;;;;;;;24.13;14.63;;;7.30;99.90;;;;;;5115457;28;20022;-41
2023/02/09 10:46:09;;;;;;;20.75;13.10;;;7.40;99.90;;;;;;5071940;28;20047;-36
2023/02/09 10:48:46;;;;;;;20.90;12.63;;;7.40;99.90;;;;;;5114567;28;20067;-35
2023/02/09 10:51:32;;;;;;;20.73;13.30;;;7.40;99.90;;;;;;5115190;28;20050;-38
2023/02/09 10:54:00;;;;;;;21.88;14.18;;;7.40;99.90;;;;;;5115265;28;20414;-41
2023/02/09 10:56:40;;;;;;;26.75;13.55;;;7.40;99.90;;;;;;5114838;28;20023;-40
2023/02/09 10:59:17;;;;;;;25.65;13.40;;;7.30;99.90;;;;;;5115194;28;20405;-34
2023/02/09 11:01:52;;;;;;;23.23;12.85;;;7.30;99.90;;;;;;5115077;28;20023;-36
2023/02/09 11:04:24;;;;;;;18.40;12.02;;;7.30;99.90;;;;;;5115190;28;20497;-34
2023/02/09 11:07:08;;;;;;;24.65;13.05;;;7.30;99.90;;;;;;5114742;27;20027;-39
2023/02/09 11:09:39;;;;;;;;;;;7.50;99.90;;;;;;5115311;28;20058;-42
2023/02/09 11:12:10;;;;;;;17.38;11.23;;;7.70;99.90;;;;;;5115144;28;19952;-42
2023/02/09 11:14:35;;;;;;;22.45;12.18;;;7.70;99.90;;;;;;5115009;27;20027;-40
2023/02/09 11:17:10;;;;;;;17.40;11.32;;;7.70;99.90;;;;;;5114439;28;20028;-42
2023/02/09 11:20:12;;;;;;;20.55;12.00;;;7.70;99.90;;;;;;5114734;28;20024;-40
2023/02/09 11:22:47;;;;;;;17.75;11.45;;;7.60;99.90;;;;;;5114741;27;20500;-36
2023/02/09 11:25:26;;;;;;;18.13;11.30;;;7.60;99.90;;;;;;5114551;28;20020;-37
2023/02/09 11:28:29;;;;;;;19.73;11.40;;;7.50;99.90;;;;;;5113693;28;20065;-36
2023/02/09 11:31:30;;;;;;;17.50;10.95;;;7.50;99.90;;;;;;5114450;28;20098;-38
2023/02/09 11:34:19;;;;;;;19.55;11.13;;;7.50;99.90;;;;;;5114407;28;20031;-34
2023/02/09 11:37:15;;;;;;;18.52;11.43;;;7.70;99.90;;;;;;5114219;28;20028;-42
2023/02/09 11:40:16;;;;;;;18.50;11.20;;;7.90;99.90;;;;;;5114246;28;20034;-43
2023/02/09 11:42:49;;;;;;;18.63;10.85;;;7.90;99.90;;;;;;5108515;28;20067;-41
2023/02/09 11:45:18;;;;;;;16.90;11.07;;;7.90;99.90;;;;;;5114529;28;20050;-39
2023/02/09 11:48:08;;;;;;;16.58;10.48;;;7.90;99.90;;;;;;5114051;28;20269;-42
2023/02/09 11:50:43;;;;;;;18.55;11.25;;;7.80;99.90;;;;;;5112996;27;20031;-39
2023/02/09 11:53:27;;;;;;;17.13;10.82;;;7.80;99.90;;;;;;5114078;28;20034;-43
2023/02/09 11:55:58;;;;;;;19.15;10.68;;;7.80;99.90;;;;;;5114010;28;20024;-42
2023/02/09 11:58:45;;;;;;;17.23;11.30;;;7.70;99.90;;;;;;5113968;28;20490;-43
2023/02/09 12:01:28;;;;;;;15.40;9.63;;;7.70;99.90;;;;;;5113804;28;20039;-43
2023/02/09 12:04:25;;;;;;;16.95;10.40;;;7.80;99.90;;;;;;5114015;28;20032;-38
2023/02/09 12:06:54;;;;;;;13.40;9.07;;;8.00;99.90;;;;;;5113868;28;20023;-36
2023/02/09 12:09:32;;;;;;;17.67;10.57;;;8.10;99.90;;;;;;5112337;28;20019;-40
2023/02/09 12:12:03;;;;;;;17.60;10.00;;;8.10;99.90;;;;;;5113878;28;20466;-33
2023/02/09 12:15:07;;;;;;;16.17;9.63;;;8.10;99.90;;;;;;5113667;28;20039;-38
2023/02/09 12:17:59;;;;;;;30.65;18.48;;;8.10;99.90;;;;;;5069971;28;20478;-38
2023/02/09 12:20:55;;;;;;;27.27;17.15;;;8.00;99.90;;;;;;5070564;28;20066;-37
2023/02/09 12:23:33;;;;;;;26.15;15.82;;;7.80;99.90;;;;;;5106765;28;20031;-37
2023/02/09 12:26:21;;;;;;;25.92;16.45;;;7.70;99.90;;;;;;5113069;28;20028;-41
2023/02/09 12:29:15;;;;;;;30.63;16.17;;;7.70;99.90;;;;;;5113226;28;20024;-42
2023/02/09 12:32:04;;;;;;;23.75;15.52;;;7.70;99.90;;;;;;5113920;28;20042;-41
2023/02/09 12:34:49;;;;;;;24.05;14.45;;;8.00;99.90;;;;;;5107870;28;20055;-43
2023/02/09 12:37:19;;;;;;;;;;;8.10;99.90;;;;;;5113320;28;20023;-39
2023/02/09 12:40:06;;;;;;;25.27;14.27;;;8.10;99.90;;;;;;5112281;28;19911;-41
2023/02/09 12:42:41;;;;;;;23.35;13.65;;;8.10;99.90;;;;;;5113078;28;20028;-43
2023/02/09 12:45:25;;;;;;;25.60;13.85;;;8.00;99.90;;;;;;5113245;28;20477;-41
2023/02/09 12:48:08;;;;;;;22.10;13.07;;;8.00;99.90;;;;;;5112854;28;20096;-40
2023/02/09 12:50:53;;;;;;;22.87;14.43;;;8.00;99.90;;;;;;5113550;28;20402;-42
2023/02/09 12:53:33;;;;;;;20.02;12.85;;;7.90;99.90;;;;;;5113288;28;20026;-42
2023/02/09 12:56:07;;;;;;;21.75;12.95;;;7.90;99.90;;;;;;5112715;28;20434;-36
2023/02/09 12:58:54;;;;;;;21.13;12.25;;;7.90;99.90;;;;;;5112853;28;20019;-35
2023/02/09 13:01:20;;;;;;;20.05;12.00;;;7.80;99.90;;;;;;5112523;28;20028;-35
2023/02/09 13:04:00;;;;;;;19.02;11.32;;;7.80;99.90;;;;;;5113277;28;20019;-38
2023/02/09 13:06:42;;;;;;;18.52;11.90;;;7.80;99.90;;;;;;5112721;28;20300;-33
2023/02/09 13:09:15;;;;;;;19.38;10.80;;;7.80;99.90;;;;;;5112698;28;20024;-38